sensor_id;sensor_type;location;lat;lon;timestamp;temperature;humidity
36442;DHT22;64346;50.820;16.274;2023-03-31T00:00:32;8.70;99.90
36442;DHT22;64346;50.820;16.274;2023-03-31T00:03:13;8.70;99.90
36442;DHT22;64346;50.820;16.274;2023-03-31T00:05:40;8.60;99.90
36442;DHT22;64346;50.820;16.274;2023-03-31T00:08:09;8.50;99.90
36442;DHT22;64346;50.820;16.274;2023-03-31T00:10:36;8.50;99.90
36442;DHT22;64346;50.820;16.274;2023-03-31T00:13:06;8.40;99.90
36442;DHT22;64346;50.820;16.274;2023-03-31T00:15:33;8.40;99.90
36442;DHT22;64346;50.820;16.274;2023-03-31T00:18:00;8.30;99.90
36442;DHT22;64346;50.820;16.274;2023-03-31T00:20:28;8.30;99.90
36442;DHT22;64346;50.820;16.274;2023-03-31T00:22:57;8.30;99.90
36442;DHT22;64346;50.820;16.274;2023-03-31T00:25:25;8.30;99.90
36442;DHT22;64346;50.820;16.274;2023-03-31T00:27:56;8.30;99.90
36442;DHT22;64346;50.820;16.274;2023-03-31T00:30:24;8.20;99.90
36442;DHT22;64346;50.820;16.274;2023-03-31T00:32:51;8.20;99.90
36442;DHT22;64346;50.820;16.274;2023-03-31T00:35:18;8.20;99.90
36442;DHT22;64346;50.820;16.274;2023-03-31T00:37:45;8.20;99.90
36442;DHT22;64346;50.820;16.274;2023-03-31T00:40:12;8.10;99.90
36442;DHT22;64346;50.820;16.274;2023-03-31T00:42:43;8.10;99.90
36442;DHT22;64346;50.820;16.274;2023-03-31T00:47:42;8.10;99.90
36442;DHT22;64346;50.820;16.274;2023-03-31T00:50:34;8.00;99.90
36442;DHT22;64346;50.820;16.274;2023-03-31T00:53:14;8.00;99.90
36442;DHT22;64346;50.820;16.274;2023-03-31T00:55:46;8.00;99.90
36442;DHT22;64346;50.820;16.274;2023-03-31T00:58:15;8.00;99.90
36442;DHT22;64346;50.820;16.274;2023-03-31T01:00:43;8.00;99.90
36442;DHT22;64346;50.820;16.274;2023-03-31T01:03:13;8.00;99.90
36442;DHT22;64346;50.820;16.274;2023-03-31T01:08:15;8.00;99.90
36442;DHT22;64346;50.820;16.274;2023-03-31T01:10:47;8.00;99.90
36442;DHT22;64346;50.820;16.274;2023-03-31T01:13:20;7.90;99.90
36442;DHT22;64346;50.820;16.274;2023-03-31T01:15:47;7.90;99.90
36442;DHT22;64346;50.820;16.274;2023-03-31T01:18:15;7.90;99.90
36442;DHT22;64346;50.820;16.274;2023-03-31T01:28:57;7.90;99.90
36442;DHT22;64346;50.820;16.274;2023-03-31T01:35:36;7.80;99.90
36442;DHT22;64346;50.820;16.274;2023-03-31T01:40:56;7.80;99.90
36442;DHT22;64346;50.820;16.274;2023-03-31T01:43:54;7.80;99.90
36442;DHT22;64346;50.820;16.274;2023-03-31T01:46:51;7.80;99.90
36442;DHT22;64346;50.820;16.274;2023-03-31T01:52:42;7.80;99.90
36442;DHT22;64346;50.820;16.274;2023-03-31T01:55:25;7.80;99.90
36442;DHT22;64346;50.820;16.274;2023-03-31T01:58:04;7.70;99.90
36442;DHT22;64346;50.820;16.274;2023-03-31T02:00:38;7.70;99.90
36442;DHT22;64346;50.820;16.274;2023-03-31T02:03:20;7.70;99.90
36442;DHT22;64346;50.820;16.274;2023-03-31T02:05:52;7.70;99.90
36442;DHT22;64346;50.820;16.274;2023-03-31T02:08:30;7.70;99.90
36442;DHT22;64346;50.820;16.274;2023-03-31T02:11:00;7.70;99.90
36442;DHT22;64346;50.820;16.274;2023-03-31T02:13:28;7.70;99.90
36442;DHT22;64346;50.820;16.274;2023-03-31T02:16:01;7.70;99.90
36442;DHT22;64346;50.820;16.274;2023-03-31T02:18:30;7.70;99.90
36442;DHT22;64346;50.820;16.274;2023-03-31T02:21:00;7.80;99.90
36442;DHT22;64346;50.820;16.274;2023-03-31T02:23:29;7.80;99.90
36442;DHT22;64346;50.820;16.274;2023-03-31T02:26:11;7.80;99.90
36442;DHT22;64346;50.820;16.274;2023-03-31T02:28:40;7.80;99.90
36442;DHT22;64346;50.820;16.274;2023-03-31T02:33:37;7.80;99.90
36442;DHT22;64346;50.820;16.274;2023-03-31T02:36:05;7.80;99.90
36442;DHT22;64346;50.820;16.274;2023-03-31T02:38:37;7.70;99.90
36442;DHT22;64346;50.820;16.274;2023-03-31T02:41:05;7.70;99.90
36442;DHT22;64346;50.820;16.274;2023-03-31T02:43:33;7.70;99.90
36442;DHT22;64346;50.820;16.274;2023-03-31T02:46:00;7.70;99.90
36442;DHT22;64346;50.820;16.274;2023-03-31T02:48:40;7.70;99.90
36442;DHT22;64346;50.820;16.274;2023-03-31T03:12:47;7.90;99.90
36442;DHT22;64346;50.820;16.274;2023-03-31T03:15:40;7.90;99.90
36442;DHT22;64346;50.820;16.274;2023-03-31T03:18:15;7.90;99.90
36442;DHT22;64346;50.820;16.274;2023-03-31T03:20:45;7.90;99.90
36442;DHT22;64346;50.820;16.274;2023-03-31T03:23:15;8.00;99.90
36442;DHT22;64346;50.820;16.274;2023-03-31T03:25:43;8.00;99.90
36442;DHT22;64346;50.820;16.274;2023-03-31T03:28:12;8.00;99.90
36442;DHT22;64346;50.820;16.274;2023-03-31T03:30:40;8.00;99.90
36442;DHT22;64346;50.820;16.274;2023-03-31T03:33:07;8.00;99.90
36442;DHT22;64346;50.820;16.274;2023-03-31T03:35:34;8.00;99.90
36442;DHT22;64346;50.820;16.274;2023-03-31T03:38:01;7.90;99.90
36442;DHT22;64346;50.820;16.274;2023-03-31T03:40:29;7.90;99.90
36442;DHT22;64346;50.820;16.274;2023-03-31T03:42:58;7.90;99.90
36442;DHT22;64346;50.820;16.274;2023-03-31T03:45:26;7.90;99.90
36442;DHT22;64346;50.820;16.274;2023-03-31T03:47:55;7.80;99.90
36442;DHT22;64346;50.820;16.274;2023-03-31T03:50:23;7.80;99.90
36442;DHT22;64346;50.820;16.274;2023-03-31T03:52:52;7.80;99.90
36442;DHT22;64346;50.820;16.274;2023-03-31T03:55:20;7.80;99.90
36442;DHT22;64346;50.820;16.274;2023-03-31T03:57:49;7.70;99.90
36442;DHT22;64346;50.820;16.274;2023-03-31T04:00:17;7.70;99.90
36442;DHT22;64346;50.820;16.274;2023-03-31T04:02:44;7.70;99.90
36442;DHT22;64346;50.820;16.274;2023-03-31T04:05:11;7.80;99.90
36442;DHT22;64346;50.820;16.274;2023-03-31T04:07:39;7.80;99.90
36442;DHT22;64346;50.820;16.274;2023-03-31T04:10:07;7.80;99.90
36442;DHT22;64346;50.820;16.274;2023-03-31T04:12:35;7.80;99.90
36442;DHT22;64346;50.820;16.274;2023-03-31T04:15:03;7.80;99.90
36442;DHT22;64346;50.820;16.274;2023-03-31T04:17:33;7.80;99.90
36442;DHT22;64346;50.820;16.274;2023-03-31T04:20:05;7.80;99.90
36442;DHT22;64346;50.820;16.274;2023-03-31T04:22:32;7.80;99.90
36442;DHT22;64346;50.820;16.274;2023-03-31T04:25:03;7.80;99.90
36442;DHT22;64346;50.820;16.274;2023-03-31T04:27:31;7.70;99.90
36442;DHT22;64346;50.820;16.274;2023-03-31T04:29:58;7.70;99.90
36442;DHT22;64346;50.820;16.274;2023-03-31T04:32:25;7.70;99.90
36442;DHT22;64346;50.820;16.274;2023-03-31T04:34:55;7.80;99.90
36442;DHT22;64346;50.820;16.274;2023-03-31T04:37:25;7.80;99.90
36442;DHT22;64346;50.820;16.274;2023-03-31T04:39:52;7.80;99.90
36442;DHT22;64346;50.820;16.274;2023-03-31T04:42:19;7.90;99.90
36442;DHT22;64346;50.820;16.274;2023-03-31T04:44:47;8.00;99.90
36442;DHT22;64346;50.820;16.274;2023-03-31T04:47:16;8.10;99.90
36442;DHT22;64346;50.820;16.274;2023-03-31T04:49:43;8.20;99.90
36442;DHT22;64346;50.820;16.274;2023-03-31T04:52:10;8.30;99.90
36442;DHT22;64346;50.820;16.274;2023-03-31T04:54:40;8.40;99.90
36442;DHT22;64346;50.820;16.274;2023-03-31T04:57:07;8.40;99.90
36442;DHT22;64346;50.820;16.274;2023-03-31T04:59:34;8.50;99.90
36442;DHT22;64346;50.820;16.274;2023-03-31T05:02:02;8.90;99.90
36442;DHT22;64346;50.820;16.274;2023-03-31T05:04:29;9.30;99.90
36442;DHT22;64346;50.820;16.274;2023-03-31T05:06:56;9.30;99.90
36442;DHT22;64346;50.820;16.274;2023-03-31T05:09:24;9.20;99.90
36442;DHT22;64346;50.820;16.274;2023-03-31T05:11:52;9.10;99.90
36442;DHT22;64346;50.820;16.274;2023-03-31T05:14:20;8.90;99.90
36442;DHT22;64346;50.820;16.274;2023-03-31T05:16:49;8.80;99.90
36442;DHT22;64346;50.820;16.274;2023-03-31T05:19:17;8.80;99.90
36442;DHT22;64346;50.820;16.274;2023-03-31T05:21:44;9.50;99.90
36442;DHT22;64346;50.820;16.274;2023-03-31T05:24:11;11.40;99.90
36442;DHT22;64346;50.820;16.274;2023-03-31T05:26:43;13.60;99.90
36442;DHT22;64346;50.820;16.274;2023-03-31T05:29:11;15.70;99.90
36442;DHT22;64346;50.820;16.274;2023-03-31T05:31:38;17.10;99.90
36442;DHT22;64346;50.820;16.274;2023-03-31T05:34:08;18.70;99.90
36442;DHT22;64346;50.820;16.274;2023-03-31T05:36:35;19.80;97.50
36442;DHT22;64346;50.820;16.274;2023-03-31T05:39:04;21.00;94.80
36442;DHT22;64346;50.820;16.274;2023-03-31T05:41:31;22.20;92.40
36442;DHT22;64346;50.820;16.274;2023-03-31T05:44:01;23.30;88.80
36442;DHT22;64346;50.820;16.274;2023-03-31T05:46:28;23.90;84.90
36442;DHT22;64346;50.820;16.274;2023-03-31T05:49:00;24.80;80.80
36442;DHT22;64346;50.820;16.274;2023-03-31T05:51:30;24.70;77.80
36442;DHT22;64346;50.820;16.274;2023-03-31T05:53:59;23.20;79.40
36442;DHT22;64346;50.820;16.274;2023-03-31T05:56:26;22.90;79.70
36442;DHT22;64346;50.820;16.274;2023-03-31T05:58:59;23.90;77.90
36442;DHT22;64346;50.820;16.274;2023-03-31T06:01:26;24.80;76.00
36442;DHT22;64346;50.820;16.274;2023-03-31T06:03:55;26.60;72.90
36442;DHT22;64346;50.820;16.274;2023-03-31T06:06:22;28.10;69.30
36442;DHT22;64346;50.820;16.274;2023-03-31T06:08:49;28.50;66.10
36442;DHT22;64346;50.820;16.274;2023-03-31T06:11:21;26.00;67.00
36442;DHT22;64346;50.820;16.274;2023-03-31T06:13:51;23.50;71.20
36442;DHT22;64346;50.820;16.274;2023-03-31T06:16:20;20.60;77.90
36442;DHT22;64346;50.820;16.274;2023-03-31T06:18:47;18.70;82.80
36442;DHT22;64346;50.820;16.274;2023-03-31T06:21:16;17.00;88.90
36442;DHT22;64346;50.820;16.274;2023-03-31T06:23:47;15.60;92.20
36442;DHT22;64346;50.820;16.274;2023-03-31T06:26:16;16.60;93.10
36442;DHT22;64346;50.820;16.274;2023-03-31T06:28:45;19.90;89.10
36442;DHT22;64346;50.820;16.274;2023-03-31T06:31:18;21.70;82.50
36442;DHT22;64346;50.820;16.274;2023-03-31T06:33:50;22.60;79.40
36442;DHT22;64346;50.820;16.274;2023-03-31T06:36:19;22.10;78.70
36442;DHT22;64346;50.820;16.274;2023-03-31T06:38:48;20.80;81.10
36442;DHT22;64346;50.820;16.274;2023-03-31T06:41:16;19.00;85.80
36442;DHT22;64346;50.820;16.274;2023-03-31T06:43:44;19.90;85.40
36442;DHT22;64346;50.820;16.274;2023-03-31T06:46:11;22.00;81.70
36442;DHT22;64346;50.820;16.274;2023-03-31T06:48:39;24.00;77.20
36442;DHT22;64346;50.820;16.274;2023-03-31T06:51:09;24.80;73.90
36442;DHT22;64346;50.820;16.274;2023-03-31T06:53:36;23.40;75.30
36442;DHT22;64346;50.820;16.274;2023-03-31T06:56:06;21.80;77.80
36442;DHT22;64346;50.820;16.274;2023-03-31T06:58:37;19.80;81.90
36442;DHT22;64346;50.820;16.274;2023-03-31T07:01:06;17.80;87.80
36442;DHT22;64346;50.820;16.274;2023-03-31T07:03:34;16.90;90.80
36442;DHT22;64346;50.820;16.274;2023-03-31T07:06:04;15.40;93.00
36442;DHT22;64346;50.820;16.274;2023-03-31T07:08:32;14.60;95.30
36442;DHT22;64346;50.820;16.274;2023-03-31T07:11:00;13.80;98.20
36442;DHT22;64346;50.820;16.274;2023-03-31T07:13:30;13.30;99.90
36442;DHT22;64346;50.820;16.274;2023-03-31T07:15:58;13.20;99.90
36442;DHT22;64346;50.820;16.274;2023-03-31T07:18:27;13.20;99.90
36442;DHT22;64346;50.820;16.274;2023-03-31T07:21:00;13.20;99.90
36442;DHT22;64346;50.820;16.274;2023-03-31T07:23:27;13.50;99.90
36442;DHT22;64346;50.820;16.274;2023-03-31T07:25:56;13.50;99.90
36442;DHT22;64346;50.820;16.274;2023-03-31T07:28:24;13.70;99.90
36442;DHT22;64346;50.820;16.274;2023-03-31T07:30:53;13.50;99.90
36442;DHT22;64346;50.820;16.274;2023-03-31T07:33:20;13.70;99.90
36442;DHT22;64346;50.820;16.274;2023-03-31T07:35:47;13.80;99.90
36442;DHT22;64346;50.820;16.274;2023-03-31T07:38:29;13.70;99.90
36442;DHT22;64346;50.820;16.274;2023-03-31T07:40:57;13.90;99.90
36442;DHT22;64346;50.820;16.274;2023-03-31T07:43:35;14.60;99.90
36442;DHT22;64346;50.820;16.274;2023-03-31T07:46:04;16.00;99.90
36442;DHT22;64346;50.820;16.274;2023-03-31T07:48:35;19.30;97.60
36442;DHT22;64346;50.820;16.274;2023-03-31T07:51:02;21.90;92.20
36442;DHT22;64346;50.820;16.274;2023-03-31T07:53:30;22.30;89.70
36442;DHT22;64346;50.820;16.274;2023-03-31T07:55:57;23.50;85.40
36442;DHT22;64346;50.820;16.274;2023-03-31T07:58:24;25.60;79.10
36442;DHT22;64346;50.820;16.274;2023-03-31T08:00:51;26.30;75.10
36442;DHT22;64346;50.820;16.274;2023-03-31T08:03:19;26.80;71.80
36442;DHT22;64346;50.820;16.274;2023-03-31T08:05:50;26.00;71.40
36442;DHT22;64346;50.820;16.274;2023-03-31T08:08:19;24.40;73.30
36442;DHT22;64346;50.820;16.274;2023-03-31T08:10:48;23.60;74.40
36442;DHT22;64346;50.820;16.274;2023-03-31T08:13:18;22.90;76.20
36442;DHT22;64346;50.820;16.274;2023-03-31T08:15:45;21.90;77.80
36442;DHT22;64346;50.820;16.274;2023-03-31T08:18:13;22.10;77.90
36442;DHT22;64346;50.820;16.274;2023-03-31T08:20:40;21.20;79.40
36442;DHT22;64346;50.820;16.274;2023-03-31T08:23:07;19.50;83.60
36442;DHT22;64346;50.820;16.274;2023-03-31T08:25:35;18.90;86.00
36442;DHT22;64346;50.820;16.274;2023-03-31T08:28:04;18.50;87.50
36442;DHT22;64346;50.820;16.274;2023-03-31T08:30:32;18.40;89.20
36442;DHT22;64346;50.820;16.274;2023-03-31T08:32:59;19.90;86.30
36442;DHT22;64346;50.820;16.274;2023-03-31T08:35:26;21.50;81.90
36442;DHT22;64346;50.820;16.274;2023-03-31T08:37:54;22.40;79.80
36442;DHT22;64346;50.820;16.274;2023-03-31T08:40:23;22.90;77.90
36442;DHT22;64346;50.820;16.274;2023-03-31T08:43:06;22.90;77.70
36442;DHT22;64346;50.820;16.274;2023-03-31T08:45:36;23.70;76.40
36442;DHT22;64346;50.820;16.274;2023-03-31T08:48:24;24.00;74.20
36442;DHT22;64346;50.820;16.274;2023-03-31T08:51:01;23.40;75.80
36442;DHT22;64346;50.820;16.274;2023-03-31T08:53:33;23.40;75.00
36442;DHT22;64346;50.820;16.274;2023-03-31T08:56:04;21.80;77.20
36442;DHT22;64346;50.820;16.274;2023-03-31T08:58:48;21.30;78.80
36442;DHT22;64346;50.820;16.274;2023-03-31T09:10:05;17.30;89.90
36442;DHT22;64346;50.820;16.274;2023-03-31T09:12:45;16.70;90.80
36442;DHT22;64346;50.820;16.274;2023-03-31T09:15:44;16.20;92.20
36442;DHT22;64346;50.820;16.274;2023-03-31T09:23:52;15.30;94.60
36442;DHT22;64346;50.820;16.274;2023-03-31T09:32:22;15.40;95.40
36442;DHT22;64346;50.820;16.274;2023-03-31T09:34:55;15.40;95.90
36442;DHT22;64346;50.820;16.274;2023-03-31T09:37:29;15.60;96.00
36442;DHT22;64346;50.820;16.274;2023-03-31T09:40:02;15.60;96.10
36442;DHT22;64346;50.820;16.274;2023-03-31T09:42:30;15.90;95.90
36442;DHT22;64346;50.820;16.274;2023-03-31T09:44:57;16.80;95.00
36442;DHT22;64346;50.820;16.274;2023-03-31T09:47:49;18.30;92.80
36442;DHT22;64346;50.820;16.274;2023-03-31T09:50:17;19.70;90.70
36442;DHT22;64346;50.820;16.274;2023-03-31T09:52:56;20.20;89.70
36442;DHT22;64346;50.820;16.274;2023-03-31T09:55:43;19.90;89.40
36442;DHT22;64346;50.820;16.274;2023-03-31T09:58:15;18.90;90.10
36442;DHT22;64346;50.820;16.274;2023-03-31T10:00:58;18.40;91.10
36442;DHT22;64346;50.820;16.274;2023-03-31T10:03:32;17.70;91.50
36442;DHT22;64346;50.820;16.274;2023-03-31T10:05:59;17.50;92.40
36442;DHT22;64346;50.820;16.274;2023-03-31T10:11:07;16.60;93.60
36442;DHT22;64346;50.820;16.274;2023-03-31T10:21:45;16.60;94.50
36442;DHT22;64346;50.820;16.274;2023-03-31T10:24:17;16.80;94.10
36442;DHT22;64346;50.820;16.274;2023-03-31T10:26:51;16.90;94.10
36442;DHT22;64346;50.820;16.274;2023-03-31T10:29:30;17.10;94.10
36442;DHT22;64346;50.820;16.274;2023-03-31T10:32:25;16.80;93.90
36442;DHT22;64346;50.820;16.274;2023-03-31T10:34:58;16.00;95.50
36442;DHT22;64346;50.820;16.274;2023-03-31T10:37:29;15.60;95.90
36442;DHT22;64346;50.820;16.274;2023-03-31T10:40:12;15.00;97.10
36442;DHT22;64346;50.820;16.274;2023-03-31T10:42:44;14.60;98.30
36442;DHT22;64346;50.820;16.274;2023-03-31T10:45:26;14.30;99.30
36442;DHT22;64346;50.820;16.274;2023-03-31T10:48:04;14.00;99.90
36442;DHT22;64346;50.820;16.274;2023-03-31T10:50:35;13.80;99.90
36442;DHT22;64346;50.820;16.274;2023-03-31T10:53:05;13.60;99.90
36442;DHT22;64346;50.820;16.274;2023-03-31T10:55:36;13.50;99.90
36442;DHT22;64346;50.820;16.274;2023-03-31T10:58:31;13.40;99.90
36442;DHT22;64346;50.820;16.274;2023-03-31T11:06:45;13.20;99.90
36442;DHT22;64346;50.820;16.274;2023-03-31T11:20:22;13.00;99.90
36442;DHT22;64346;50.820;16.274;2023-03-31T11:25:51;12.80;99.90
36442;DHT22;64346;50.820;16.274;2023-03-31T11:34:43;13.30;99.90
36442;DHT22;64346;50.820;16.274;2023-03-31T11:42:38;13.60;99.90
36442;DHT22;64346;50.820;16.274;2023-03-31T11:45:18;13.90;99.90
36442;DHT22;64346;50.820;16.274;2023-03-31T11:47:49;14.20;99.90
36442;DHT22;64346;50.820;16.274;2023-03-31T11:50:25;14.10;99.90
36442;DHT22;64346;50.820;16.274;2023-03-31T11:53:16;14.00;99.90
36442;DHT22;64346;50.820;16.274;2023-03-31T11:55:47;13.80;99.90
36442;DHT22;64346;50.820;16.274;2023-03-31T11:58:22;13.60;99.90
36442;DHT22;64346;50.820;16.274;2023-03-31T12:00:56;13.60;99.90
36442;DHT22;64346;50.820;16.274;2023-03-31T12:06:18;13.80;99.90
36442;DHT22;64346;50.820;16.274;2023-03-31T12:09:06;14.10;99.90
36442;DHT22;64346;50.820;16.274;2023-03-31T12:17:11;14.50;99.90
36442;DHT22;64346;50.820;16.274;2023-03-31T12:24:53;14.60;99.90
36442;DHT22;64346;50.820;16.274;2023-03-31T12:27:40;14.20;99.90
36442;DHT22;64346;50.820;16.274;2023-03-31T12:32:45;14.30;99.90
36442;DHT22;64346;50.820;16.274;2023-03-31T12:35:19;14.10;99.90
36442;DHT22;64346;50.820;16.274;2023-03-31T12:59:37;12.90;99.90
36442;DHT22;64346;50.820;16.274;2023-03-31T13:04:36;12.80;99.90
36442;DHT22;64346;50.820;16.274;2023-03-31T13:12:40;12.60;99.90
36442;DHT22;64346;50.820;16.274;2023-03-31T13:15:13;12.50;99.90
36442;DHT22;64346;50.820;16.274;2023-03-31T13:17:43;12.50;99.90
36442;DHT22;64346;50.820;16.274;2023-03-31T13:22:48;12.50;99.90
36442;DHT22;64346;50.820;16.274;2023-03-31T13:25:35;12.50;99.90
36442;DHT22;64346;50.820;16.274;2023-03-31T13:35:49;12.40;99.90
36442;DHT22;64346;50.820;16.274;2023-03-31T14:04:22;12.60;99.90
36442;DHT22;64346;50.820;16.274;2023-03-31T14:07:17;12.60;99.90
36442;DHT22;64346;50.820;16.274;2023-03-31T14:09:46;12.70;99.90
36442;DHT22;64346;50.820;16.274;2023-03-31T14:12:34;12.80;99.90
36442;DHT22;64346;50.820;16.274;2023-03-31T14:15:05;13.00;99.90
36442;DHT22;64346;50.820;16.274;2023-03-31T14:17:42;13.30;99.90
36442;DHT22;64346;50.820;16.274;2023-03-31T14:36:49;13.60;99.90
36442;DHT22;64346;50.820;16.274;2023-03-31T14:39:23;13.80;99.90
36442;DHT22;64346;50.820;16.274;2023-03-31T14:41:55;13.80;99.90
36442;DHT22;64346;50.820;16.274;2023-03-31T14:44:24;13.70;99.90
36442;DHT22;64346;50.820;16.274;2023-03-31T14:46:56;13.70;99.90
36442;DHT22;64346;50.820;16.274;2023-03-31T14:49:38;13.70;99.90
36442;DHT22;64346;50.820;16.274;2023-03-31T14:52:20;13.40;99.90
36442;DHT22;64346;50.820;16.274;2023-03-31T14:54:49;13.00;99.90
36442;DHT22;64346;50.820;16.274;2023-03-31T14:57:24;12.60;99.90
36442;DHT22;64346;50.820;16.274;2023-03-31T14:59:57;12.50;99.90
36442;DHT22;64346;50.820;16.274;2023-03-31T15:02:34;12.50;99.90
36442;DHT22;64346;50.820;16.274;2023-03-31T15:05:06;12.50;99.90
36442;DHT22;64346;50.820;16.274;2023-03-31T15:07:41;12.50;99.90
36442;DHT22;64346;50.820;16.274;2023-03-31T15:10:17;12.60;99.90
36442;DHT22;64346;50.820;16.274;2023-03-31T15:12:49;12.70;99.90
36442;DHT22;64346;50.820;16.274;2023-03-31T15:15:19;12.70;99.90
36442;DHT22;64346;50.820;16.274;2023-03-31T15:17:47;12.80;99.90
36442;DHT22;64346;50.820;16.274;2023-03-31T15:20:34;12.90;99.90
36442;DHT22;64346;50.820;16.274;2023-03-31T15:23:16;12.90;99.90
36442;DHT22;64346;50.820;16.274;2023-03-31T15:25:44;12.90;99.90
36442;DHT22;64346;50.820;16.274;2023-03-31T15:28:16;13.00;99.90
36442;DHT22;64346;50.820;16.274;2023-03-31T15:30:43;12.90;99.90
36442;DHT22;64346;50.820;16.274;2023-03-31T15:33:34;12.80;99.90
36442;DHT22;64346;50.820;16.274;2023-03-31T15:36:03;12.80;99.90
36442;DHT22;64346;50.820;16.274;2023-03-31T15:38:30;12.70;99.90
36442;DHT22;64346;50.820;16.274;2023-03-31T15:41:13;12.70;99.90
36442;DHT22;64346;50.820;16.274;2023-03-31T15:43:49;12.70;99.90
36442;DHT22;64346;50.820;16.274;2023-03-31T15:49:22;12.40;99.90
36442;DHT22;64346;50.820;16.274;2023-03-31T15:51:50;12.40;99.90
36442;DHT22;64346;50.820;16.274;2023-03-31T15:54:35;12.40;99.90
36442;DHT22;64346;50.820;16.274;2023-03-31T15:57:05;12.50;99.90
36442;DHT22;64346;50.820;16.274;2023-03-31T15:59:45;12.50;99.90
36442;DHT22;64346;50.820;16.274;2023-03-31T16:02:39;12.50;99.90
36442;DHT22;64346;50.820;16.274;2023-03-31T16:05:41;12.50;99.90
36442;DHT22;64346;50.820;16.274;2023-03-31T16:08:47;12.40;99.90
36442;DHT22;64346;50.820;16.274;2023-03-31T16:11:21;12.50;99.90
36442;DHT22;64346;50.820;16.274;2023-03-31T16:13:55;12.50;99.90
36442;DHT22;64346;50.820;16.274;2023-03-31T16:16:27;12.30;99.90
36442;DHT22;64346;50.820;16.274;2023-03-31T16:19:08;12.30;99.90
36442;DHT22;64346;50.820;16.274;2023-03-31T16:21:47;12.20;99.90
36442;DHT22;64346;50.820;16.274;2023-03-31T16:24:15;12.20;99.90
36442;DHT22;64346;50.820;16.274;2023-03-31T16:26:43;12.20;99.90
36442;DHT22;64346;50.820;16.274;2023-03-31T16:29:19;12.30;99.90
36442;DHT22;64346;50.820;16.274;2023-03-31T16:31:47;12.20;99.90
36442;DHT22;64346;50.820;16.274;2023-03-31T16:34:14;12.20;99.90
36442;DHT22;64346;50.820;16.274;2023-03-31T16:36:42;12.10;99.90
36442;DHT22;64346;50.820;16.274;2023-03-31T16:39:09;12.10;99.90
36442;DHT22;64346;50.820;16.274;2023-03-31T16:41:37;12.00;99.90
36442;DHT22;64346;50.820;16.274;2023-03-31T16:44:04;12.00;99.90
36442;DHT22;64346;50.820;16.274;2023-03-31T16:46:31;12.00;99.90
36442;DHT22;64346;50.820;16.274;2023-03-31T16:49:01;11.90;99.90
36442;DHT22;64346;50.820;16.274;2023-03-31T16:51:29;11.80;99.90
36442;DHT22;64346;50.820;16.274;2023-03-31T16:53:56;11.70;99.90
36442;DHT22;64346;50.820;16.274;2023-03-31T16:56:25;11.40;99.90
36442;DHT22;64346;50.820;16.274;2023-03-31T16:58:52;11.40;99.90
36442;DHT22;64346;50.820;16.274;2023-03-31T17:01:20;11.30;99.90
36442;DHT22;64346;50.820;16.274;2023-03-31T17:03:47;11.20;99.90
36442;DHT22;64346;50.820;16.274;2023-03-31T17:06:14;11.20;99.90
36442;DHT22;64346;50.820;16.274;2023-03-31T17:08:44;11.30;99.90
36442;DHT22;64346;50.820;16.274;2023-03-31T17:11:12;11.30;99.90
36442;DHT22;64346;50.820;16.274;2023-03-31T17:13:43;11.20;99.90
36442;DHT22;64346;50.820;16.274;2023-03-31T17:16:11;11.30;99.90
36442;DHT22;64346;50.820;16.274;2023-03-31T17:18:41;11.20;99.90
36442;DHT22;64346;50.820;16.274;2023-03-31T17:21:13;11.10;99.90
36442;DHT22;64346;50.820;16.274;2023-03-31T17:23:43;11.00;99.90
36442;DHT22;64346;50.820;16.274;2023-03-31T17:26:13;11.00;99.90
36442;DHT22;64346;50.820;16.274;2023-03-31T17:28:41;10.90;99.90
36442;DHT22;64346;50.820;16.274;2023-03-31T17:31:17;10.80;99.90
36442;DHT22;64346;50.820;16.274;2023-03-31T17:33:47;10.80;99.90
36442;DHT22;64346;50.820;16.274;2023-03-31T17:36:17;10.70;99.90
36442;DHT22;64346;50.820;16.274;2023-03-31T17:38:44;10.70;99.90
36442;DHT22;64346;50.820;16.274;2023-03-31T17:41:12;10.70;99.90
36442;DHT22;64346;50.820;16.274;2023-03-31T17:43:44;10.70;99.90
36442;DHT22;64346;50.820;16.274;2023-03-31T17:46:11;10.70;99.90
36442;DHT22;64346;50.820;16.274;2023-03-31T17:48:40;10.70;99.90
36442;DHT22;64346;50.820;16.274;2023-03-31T17:51:10;10.70;99.90
36442;DHT22;64346;50.820;16.274;2023-03-31T17:53:38;10.70;99.90
36442;DHT22;64346;50.820;16.274;2023-03-31T17:56:06;10.70;99.90
36442;DHT22;64346;50.820;16.274;2023-03-31T17:58:37;10.80;99.90
36442;DHT22;64346;50.820;16.274;2023-03-31T18:01:06;10.80;99.90
36442;DHT22;64346;50.820;16.274;2023-03-31T18:03:34;10.80;99.90
36442;DHT22;64346;50.820;16.274;2023-03-31T18:06:10;10.80;99.90
36442;DHT22;64346;50.820;16.274;2023-03-31T18:08:38;10.80;99.90
36442;DHT22;64346;50.820;16.274;2023-03-31T18:11:07;10.90;99.90
36442;DHT22;64346;50.820;16.274;2023-03-31T18:13:35;10.90;99.90
36442;DHT22;64346;50.820;16.274;2023-03-31T18:16:03;10.90;99.90
36442;DHT22;64346;50.820;16.274;2023-03-31T18:18:31;10.90;99.90
36442;DHT22;64346;50.820;16.274;2023-03-31T18:21:04;10.90;99.90
36442;DHT22;64346;50.820;16.274;2023-03-31T18:23:32;10.90;99.90
36442;DHT22;64346;50.820;16.274;2023-03-31T18:26:04;10.90;99.90
36442;DHT22;64346;50.820;16.274;2023-03-31T18:28:31;10.90;99.90
36442;DHT22;64346;50.820;16.274;2023-03-31T18:31:03;10.80;99.90
36442;DHT22;64346;50.820;16.274;2023-03-31T18:33:30;10.80;99.90
36442;DHT22;64346;50.820;16.274;2023-03-31T18:35:58;10.70;99.90
36442;DHT22;64346;50.820;16.274;2023-03-31T18:38:25;10.70;99.90
36442;DHT22;64346;50.820;16.274;2023-03-31T18:40:53;10.60;99.90
36442;DHT22;64346;50.820;16.274;2023-03-31T18:43:20;10.60;99.90
36442;DHT22;64346;50.820;16.274;2023-03-31T18:45:48;10.60;99.90
36442;DHT22;64346;50.820;16.274;2023-03-31T18:48:18;10.60;99.90
36442;DHT22;64346;50.820;16.274;2023-03-31T18:50:46;10.50;99.90
36442;DHT22;64346;50.820;16.274;2023-03-31T18:53:18;10.50;99.90
36442;DHT22;64346;50.820;16.274;2023-03-31T18:56:11;10.50;99.90
36442;DHT22;64346;50.820;16.274;2023-03-31T18:58:39;10.50;99.90
36442;DHT22;64346;50.820;16.274;2023-03-31T19:01:06;10.50;99.90
36442;DHT22;64346;50.820;16.274;2023-03-31T19:03:33;10.40;99.90
36442;DHT22;64346;50.820;16.274;2023-03-31T19:06:08;10.40;99.90
36442;DHT22;64346;50.820;16.274;2023-03-31T19:08:35;10.40;99.90
36442;DHT22;64346;50.820;16.274;2023-03-31T19:13:34;10.30;99.90
36442;DHT22;64346;50.820;16.274;2023-03-31T19:16:04;10.20;99.90
36442;DHT22;64346;50.820;16.274;2023-03-31T19:18:31;10.20;99.90
36442;DHT22;64346;50.820;16.274;2023-03-31T19:21:00;10.20;99.90